Terminal Aerodrome Forecast
Issued by NWS

Home | Current Version | Previous Version | Text Only | Print | Product List | Glossary On
Versions: 1 2 3 4 5 6 7 8 9 10 11 12 13 14 15 16 17 18 19 20 21
828
FTUS46 KSTO 211750
TAFRDD
TAF
KRDD 211750Z 2118/2218 18008KT P6SM VCSH OVC015
     FM212000 18015G25KT P6SM -SHRA OVC020
     FM220600 17020G30KT P6SM RA OVC015
     FM220800 17022G35KT P6SM RA OVC015
     FM221600 18015KT 6SM -RA OVC015=

USA.gov is the U.S. government's official web portal to all federal, state and local government web resources and services.